createdAt,value
2018-12-19T00:02:03.583Z,1.00
2018-12-19T00:04:31.461Z,1.27
2018-12-19T00:06:59.326Z,1.17
2018-12-19T00:09:27.160Z,0.97
2018-12-19T00:11:54.988Z,1.17
2018-12-19T00:14:22.822Z,1.17
2018-12-19T00:16:50.667Z,1.00
2018-12-19T00:19:18.554Z,0.90
2018-12-19T00:21:46.430Z,1.50
2018-12-19T00:24:14.256Z,0.97
2018-12-19T00:26:42.065Z,1.13
2018-12-19T00:29:09.918Z,1.20
2018-12-19T00:31:37.776Z,0.90
2018-12-19T00:34:05.621Z,1.00
2018-12-19T00:36:33.527Z,1.00
2018-12-19T00:39:01.367Z,0.97
2018-12-19T00:41:29.229Z,1.07
2018-12-19T00:43:57.047Z,1.13
2018-12-19T00:46:24.938Z,1.20
2018-12-19T00:48:52.828Z,1.57
2018-12-19T00:51:20.697Z,1.03
2018-12-19T00:53:48.578Z,1.33
2018-12-19T00:56:16.400Z,0.90
2018-12-19T00:58:44.285Z,0.90
2018-12-19T01:01:12.170Z,1.30
2018-12-19T01:03:40.038Z,1.00
2018-12-19T01:06:07.894Z,1.10
2018-12-19T01:08:35.782Z,1.07
2018-12-19T01:11:03.618Z,0.80
2018-12-19T01:13:31.456Z,1.00
2018-12-19T01:15:59.301Z,0.90
2018-12-19T01:18:27.114Z,1.00
2018-12-19T01:20:54.950Z,1.43
2018-12-19T01:23:22.745Z,1.30
2018-12-19T01:25:50.594Z,1.20
2018-12-19T01:28:18.422Z,1.20
2018-12-19T01:30:46.286Z,1.10
2018-12-19T01:33:14.097Z,1.37
2018-12-19T01:35:41.925Z,1.20
2018-12-19T01:38:09.780Z,1.20
2018-12-19T01:40:37.699Z,1.23
2018-12-19T01:43:05.558Z,1.10
2018-12-19T01:45:33.423Z,1.13
2018-12-19T01:48:01.261Z,1.10
2018-12-19T01:50:29.101Z,1.10
2018-12-19T01:52:56.918Z,1.10
2018-12-19T01:55:24.753Z,0.97
2018-12-19T01:57:52.577Z,1.17
2018-12-19T02:00:23.479Z,0.90
2018-12-19T02:02:51.319Z,1.20
2018-12-19T02:05:19.165Z,0.87
2018-12-19T02:07:47.114Z,1.30
2018-12-19T02:10:14.961Z,0.70
2018-12-19T02:12:42.870Z,0.73
2018-12-19T02:15:10.719Z,1.03
2018-12-19T02:17:38.588Z,1.00
2018-12-19T02:20:06.454Z,0.97
2018-12-19T02:22:34.318Z,0.97
2018-12-19T02:25:02.146Z,0.70
2018-12-19T02:27:29.989Z,1.07
2018-12-19T02:29:58.090Z,1.10
2018-12-19T02:32:25.932Z,1.50
2018-12-19T02:34:53.729Z,1.20
2018-12-19T02:37:21.592Z,1.07
2018-12-19T02:39:49.424Z,0.93
2018-12-19T02:42:17.307Z,0.93
2018-12-19T02:44:45.188Z,1.57
2018-12-19T02:47:13.012Z,0.90
2018-12-19T02:49:40.858Z,1.43
2018-12-19T02:52:08.664Z,0.90
2018-12-19T02:54:36.500Z,0.87
2018-12-19T02:57:04.591Z,0.87
2018-12-19T02:59:32.435Z,0.97
2018-12-19T03:02:00.264Z,1.00
2018-12-19T03:04:28.129Z,1.60
2018-12-19T03:06:55.991Z,0.93
2018-12-19T03:09:23.851Z,1.10
2018-12-19T03:11:51.689Z,1.00
2018-12-19T03:14:19.640Z,0.80
2018-12-19T03:16:47.570Z,1.00
2018-12-19T03:19:15.584Z,1.00
2018-12-19T03:21:43.411Z,0.90
2018-12-19T03:24:11.259Z,1.40
2018-12-19T03:26:39.290Z,1.20
2018-12-19T03:29:07.853Z,0.80
2018-12-19T03:31:36.242Z,1.10
2018-12-19T03:34:04.089Z,1.10
2018-12-19T03:36:32.353Z,1.40
2018-12-19T03:39:00.207Z,1.20
2018-12-19T03:41:28.058Z,1.10
2018-12-19T03:43:55.918Z,1.27
2018-12-19T03:46:23.913Z,1.30
2018-12-19T03:48:56.671Z,1.27
2018-12-19T03:51:24.524Z,0.80
2018-12-19T03:53:52.388Z,0.83
2018-12-19T03:56:20.357Z,1.30
2018-12-19T03:58:48.173Z,0.80
2018-12-19T04:01:16.056Z,0.80
2018-12-19T04:03:43.901Z,1.20
2018-12-19T04:06:11.759Z,1.20
2018-12-19T04:08:39.594Z,2.40
2018-12-19T04:11:07.489Z,1.17
2018-12-19T04:13:35.358Z,1.20
2018-12-19T04:16:03.218Z,0.90
2018-12-19T04:18:31.050Z,1.20
2018-12-19T04:20:58.989Z,1.10
2018-12-19T04:23:26.820Z,0.97
2018-12-19T04:25:54.654Z,1.27
2018-12-19T04:28:22.509Z,1.07
2018-12-19T04:30:50.333Z,1.13
2018-12-19T04:33:18.214Z,0.80
2018-12-19T04:35:46.337Z,1.00
2018-12-19T04:38:14.453Z,1.00
2018-12-19T04:40:42.286Z,0.97
2018-12-19T04:43:10.125Z,1.90
2018-12-19T04:45:37.928Z,0.87
2018-12-19T04:48:05.874Z,1.23
2018-12-19T04:50:33.714Z,0.90
2018-12-19T04:53:01.640Z,1.13
2018-12-19T04:55:30.284Z,0.97
2018-12-19T04:57:58.125Z,0.97
2018-12-19T05:00:25.945Z,1.27
2018-12-19T05:02:53.817Z,0.90
2018-12-19T05:05:21.739Z,1.13
2018-12-19T05:07:49.913Z,1.50
2018-12-19T05:10:17.756Z,1.30
2018-12-19T05:12:45.602Z,1.10
2018-12-19T05:15:13.427Z,0.90
2018-12-19T05:17:41.265Z,1.00
2018-12-19T05:20:10.247Z,1.40
2018-12-19T05:22:38.062Z,1.40
2018-12-19T05:25:07.146Z,1.43
2018-12-19T05:27:34.971Z,1.17
2018-12-19T05:30:02.810Z,1.50
2018-12-19T05:32:30.674Z,1.03
2018-12-19T05:34:58.535Z,1.07
2018-12-19T05:37:26.353Z,1.07
2018-12-19T05:39:54.241Z,1.07
2018-12-19T05:42:22.117Z,1.13
2018-12-19T05:44:50.653Z,1.37
2018-12-19T05:47:19.621Z,1.10
2018-12-19T05:49:48.157Z,0.90
2018-12-19T05:52:15.994Z,0.87
2018-12-19T05:54:43.852Z,0.90
2018-12-19T05:57:12.006Z,1.27
2018-12-19T05:59:39.895Z,1.00
2018-12-19T06:02:07.857Z,1.53
2018-12-19T06:04:35.730Z,1.53
2018-12-19T06:07:03.600Z,0.90
2018-12-19T06:09:31.433Z,1.60
2018-12-19T06:11:59.299Z,1.10
2018-12-19T06:14:27.192Z,1.40
2018-12-19T06:16:55.843Z,1.37
2018-12-19T06:19:24.340Z,1.37
2018-12-19T06:21:52.298Z,1.40
2018-12-19T06:24:20.245Z,1.23
2018-12-19T06:26:48.174Z,1.37
2018-12-19T06:29:16.051Z,1.20
2018-12-19T06:31:43.898Z,2.10
2018-12-19T06:34:12.537Z,1.50
2018-12-19T06:36:41.190Z,1.63
2018-12-19T06:39:09.036Z,1.60
2018-12-19T06:41:36.885Z,0.97
2018-12-19T06:44:04.733Z,1.63
2018-12-19T06:46:32.743Z,1.80
2018-12-19T06:49:01.334Z,1.70
2018-12-19T06:51:29.214Z,2.03
2018-12-19T06:53:57.058Z,1.03
2018-12-19T06:56:25.002Z,1.50
2018-12-19T06:58:52.858Z,1.70
2018-12-19T07:01:20.809Z,1.97
2018-12-19T07:03:48.657Z,2.23
2018-12-19T07:06:16.856Z,2.60
2018-12-19T07:08:44.704Z,1.70
2018-12-19T07:11:12.586Z,2.10
2018-12-19T07:13:40.865Z,2.07
2018-12-19T07:16:09.099Z,3.07
2018-12-19T07:18:36.912Z,2.10
2018-12-19T07:21:04.923Z,2.87
2018-12-19T07:23:32.822Z,2.03
2018-12-19T07:26:00.666Z,1.27
2018-12-19T07:28:29.170Z,1.97
2018-12-19T07:30:57.038Z,1.33
2018-12-19T07:33:24.950Z,1.57
2018-12-19T07:35:52.898Z,2.53
2018-12-19T07:38:20.866Z,1.90
2018-12-19T07:40:48.767Z,1.80
2018-12-19T07:43:16.684Z,1.70
2018-12-19T07:45:44.545Z,1.63
2018-12-19T07:48:12.542Z,1.93
2018-12-19T07:50:40.395Z,2.80
2018-12-19T07:53:08.395Z,1.60
2018-12-19T07:55:38.350Z,1.60
2018-12-19T07:58:06.912Z,1.37
2018-12-19T08:00:34.748Z,1.40
2018-12-19T08:03:03.231Z,1.20
2018-12-19T08:05:31.997Z,1.43
2018-12-19T08:07:59.801Z,1.73
2018-12-19T08:10:27.709Z,1.30
2018-12-19T08:12:55.630Z,1.20
2018-12-19T08:15:24.041Z,1.10
2018-12-19T08:17:52.475Z,1.03
2018-12-19T08:20:20.410Z,1.27
2018-12-19T08:22:48.246Z,1.23
2018-12-19T08:25:16.182Z,1.10
2018-12-19T08:27:44.651Z,1.70
2018-12-19T08:30:12.569Z,1.43
2018-12-19T08:32:40.406Z,1.10
2018-12-19T08:35:08.281Z,1.33
2018-12-19T08:37:36.192Z,1.20
2018-12-19T08:40:04.422Z,1.23
2018-12-19T08:42:32.278Z,1.30
2018-12-19T08:45:00.172Z,1.27
2018-12-19T08:47:28.031Z,1.47
2018-12-19T08:49:56.021Z,1.13
2018-12-19T08:52:23.891Z,1.30
2018-12-19T08:54:51.783Z,1.50
2018-12-19T08:57:20.462Z,1.03
2018-12-19T08:59:48.315Z,2.43
2018-12-19T09:02:16.918Z,1.40
2018-12-19T09:04:44.783Z,1.90
2018-12-19T09:07:12.729Z,1.97
2018-12-19T09:09:40.668Z,1.50
2018-12-19T09:12:08.546Z,1.70
2018-12-19T09:14:36.374Z,2.00
2018-12-19T09:17:04.240Z,2.57
2018-12-19T09:19:32.351Z,2.27
2018-12-19T09:22:00.694Z,2.00
2018-12-19T09:24:28.719Z,2.17
2018-12-19T09:26:56.554Z,2.40
2018-12-19T09:29:24.407Z,2.10
2018-12-19T09:31:52.280Z,2.30
2018-12-19T09:34:20.365Z,2.27
2018-12-19T09:36:48.220Z,2.23
2018-12-19T09:39:16.080Z,2.67
2018-12-19T09:41:43.981Z,2.40
2018-12-19T09:44:11.805Z,2.17
2018-12-19T09:46:39.636Z,2.30
2018-12-19T09:49:12.396Z,2.60
2018-12-19T09:51:37.655Z,2.53
2018-12-19T09:54:05.498Z,2.43
2018-12-19T09:56:33.345Z,2.20
2018-12-19T09:59:01.184Z,2.20
2018-12-19T10:01:29.029Z,2.23
2018-12-19T10:03:56.872Z,2.40
2018-12-19T10:06:24.733Z,2.27
2018-12-19T10:08:52.652Z,2.60
2018-12-19T10:11:20.584Z,2.00
2018-12-19T10:13:48.521Z,2.10
2018-12-19T10:16:16.472Z,2.90
2018-12-19T10:18:44.292Z,2.37
2018-12-19T10:21:12.117Z,2.63
2018-12-19T10:23:39.959Z,3.67
2018-12-19T10:26:14.152Z,3.50
2018-12-19T10:28:42.058Z,3.20
2018-12-19T10:31:09.904Z,3.00
2018-12-19T10:33:37.716Z,3.60
2018-12-19T10:36:05.578Z,2.97
2018-12-19T10:38:33.421Z,3.10
2018-12-19T10:41:01.241Z,2.80
2018-12-19T10:43:29.070Z,3.00
2018-12-19T10:45:56.954Z,2.60
2018-12-19T10:48:24.830Z,2.20
2018-12-19T10:50:52.653Z,2.27
2018-12-19T10:53:20.560Z,2.83
2018-12-19T10:55:48.432Z,3.47
2018-12-19T10:58:16.265Z,3.13
2018-12-19T11:00:49.213Z,3.20
2018-12-19T11:03:17.087Z,3.07
2018-12-19T11:05:45.080Z,3.07
2018-12-19T11:08:13.053Z,3.53
2018-12-19T11:10:41.255Z,3.50
2018-12-19T11:13:09.914Z,3.87
2018-12-19T11:15:37.729Z,3.80
2018-12-19T11:18:05.806Z,3.73
2018-12-19T11:20:34.433Z,3.63
2018-12-19T11:23:03.477Z,4.03
2018-12-19T11:25:32.825Z,3.80
2018-12-19T11:28:01.320Z,3.50
2018-12-19T11:30:29.177Z,3.77
2018-12-19T11:32:57.038Z,4.40
2018-12-19T11:35:25.073Z,4.00
2018-12-19T11:37:53.041Z,3.67
2018-12-19T11:40:21.266Z,3.50
2018-12-19T11:42:49.771Z,3.50
2018-12-19T11:45:17.717Z,3.83
2018-12-19T11:47:45.574Z,3.97
2018-12-19T11:50:13.492Z,5.17
2018-12-19T11:52:41.343Z,5.13
2018-12-19T11:55:09.185Z,6.30
2018-12-19T11:57:37.169Z,4.67
2018-12-19T12:00:06.329Z,4.50
2018-12-19T12:02:34.252Z,2.83
2018-12-19T12:05:02.113Z,3.07
2018-12-19T12:07:30.125Z,3.73
2018-12-19T12:09:57.963Z,4.17
2018-12-19T12:12:25.831Z,4.23
2018-12-19T12:14:53.708Z,4.43
2018-12-19T12:17:21.586Z,3.50
2018-12-19T12:19:50.073Z,3.97
2018-12-19T12:22:18.755Z,3.90
2018-12-19T12:24:46.805Z,4.00
2018-12-19T12:27:15.454Z,4.20
2018-12-19T12:29:43.847Z,4.90
2018-12-19T12:32:12.330Z,4.10
2018-12-19T12:34:41.260Z,4.50
2018-12-19T12:37:09.054Z,4.17
2018-12-19T12:39:36.969Z,5.70
2018-12-19T12:42:04.856Z,10.53
2018-12-19T12:44:32.787Z,6.50
2018-12-19T12:47:01.716Z,5.83
2018-12-19T12:49:31.424Z,3.90
2018-12-19T12:51:59.587Z,3.83
2018-12-19T12:54:27.682Z,3.47
2018-12-19T12:56:55.534Z,3.03
2018-12-19T12:59:23.456Z,2.70
2018-12-19T13:01:51.502Z,2.40
2018-12-19T13:04:19.325Z,2.77
2018-12-19T13:06:47.214Z,2.50
2018-12-19T13:09:15.026Z,2.47
2018-12-19T13:11:43.526Z,2.20
2018-12-19T13:14:12.109Z,2.00
2018-12-19T13:16:40.858Z,9.73
2018-12-19T13:19:09.504Z,2.80
2018-12-19T13:21:38.151Z,2.30
2018-12-19T13:24:06.041Z,1.97
2018-12-19T13:26:33.938Z,1.93
2018-12-19T13:29:01.869Z,2.00
2018-12-19T13:31:30.325Z,2.20
2018-12-19T13:33:58.762Z,2.20
2018-12-19T13:36:27.437Z,2.50
2018-12-19T13:38:56.025Z,2.10
2018-12-19T13:41:24.684Z,1.97
2018-12-19T13:43:52.477Z,2.37
2018-12-19T13:46:20.978Z,2.27
2018-12-19T13:48:49.768Z,2.00
2018-12-19T13:51:17.607Z,2.20
2018-12-19T13:53:46.096Z,2.50
2018-12-19T13:56:13.917Z,2.63
2018-12-19T13:58:42.599Z,2.30
2018-12-19T14:01:11.217Z,2.50
2018-12-19T14:03:39.837Z,2.50
2018-12-19T14:06:08.483Z,2.30
2018-12-19T14:08:37.119Z,2.07
2018-12-19T14:11:05.563Z,2.20
2018-12-19T14:13:34.282Z,2.00
2018-12-19T14:16:02.133Z,1.80
2018-12-19T14:18:29.968Z,1.90
2018-12-19T14:20:57.825Z,1.40
2018-12-19T14:23:26.406Z,1.93
2018-12-19T14:25:54.282Z,2.03
2018-12-19T14:28:22.869Z,1.93
2018-12-19T14:30:51.859Z,1.60
2018-12-19T14:33:19.764Z,1.67
2018-12-19T14:35:48.596Z,2.03
2018-12-19T14:38:17.221Z,1.80
2018-12-19T14:40:45.661Z,1.97
2018-12-19T14:43:14.094Z,2.07
2018-12-19T14:45:42.745Z,2.03
2018-12-19T14:48:11.394Z,2.37
2018-12-19T14:50:40.010Z,2.10
2018-12-19T14:53:08.630Z,1.87
2018-12-19T14:55:37.114Z,2.07
2018-12-19T14:58:05.521Z,2.37
2018-12-19T15:00:34.184Z,2.00
2018-12-19T15:03:02.887Z,1.97
2018-12-19T15:05:31.539Z,2.63
2018-12-19T15:07:59.824Z,1.90
2018-12-19T15:10:28.322Z,2.20
2018-12-19T15:12:56.974Z,2.63
2018-12-19T15:15:25.626Z,2.10
2018-12-19T15:17:54.090Z,2.23
2018-12-19T15:20:22.769Z,1.93
2018-12-19T15:22:50.742Z,2.47
2018-12-19T15:25:19.692Z,2.20
2018-12-19T15:27:47.665Z,2.33
2018-12-19T15:30:16.250Z,2.97
2018-12-19T15:32:44.457Z,2.20
2018-12-19T15:35:13.309Z,2.20
2018-12-19T15:37:41.603Z,2.33
2018-12-19T15:40:10.032Z,2.30
2018-12-19T15:42:38.637Z,2.23
2018-12-19T15:45:07.302Z,2.33
2018-12-19T15:47:35.734Z,2.13
2018-12-19T15:50:04.325Z,2.13
2018-12-19T15:52:32.998Z,2.47
2018-12-19T15:55:01.639Z,2.20
2018-12-19T15:57:30.278Z,2.80
2018-12-19T15:59:58.934Z,2.33
2018-12-19T16:02:27.550Z,2.10
2018-12-19T16:04:55.985Z,1.97
2018-12-19T16:07:24.657Z,2.07
2018-12-19T16:09:53.270Z,2.00
2018-12-19T16:12:22.029Z,2.20
2018-12-19T16:14:50.552Z,1.53
2018-12-19T16:17:18.986Z,1.83
2018-12-19T16:19:47.408Z,2.00
2018-12-19T16:22:15.854Z,2.10
2018-12-19T16:24:44.287Z,1.97
2018-12-19T16:27:13.915Z,1.87
2018-12-19T16:29:41.992Z,2.30
2018-12-19T16:32:11.575Z,2.60
2018-12-19T16:34:40.014Z,2.53
2018-12-19T16:37:08.445Z,3.60
2018-12-19T16:39:37.230Z,6.17
2018-12-19T16:42:06.328Z,31.47
2018-12-19T16:44:34.958Z,5.57
2018-12-19T16:47:03.397Z,2.77
2018-12-19T16:49:32.053Z,2.20
2018-12-19T16:52:00.689Z,2.20
2018-12-19T16:54:29.306Z,2.53
2018-12-19T16:56:57.929Z,2.40
2018-12-19T16:59:25.797Z,1.90
2018-12-19T17:01:53.682Z,2.37
2018-12-19T17:04:21.719Z,2.30
2018-12-19T17:06:50.361Z,2.53
2018-12-19T17:09:19.010Z,3.10
2018-12-19T17:11:47.653Z,2.23
2018-12-19T17:14:16.250Z,2.73
2018-12-19T17:16:44.778Z,2.53
2018-12-19T17:19:14.316Z,2.30
2018-12-19T17:21:42.981Z,2.50
2018-12-19T17:24:11.606Z,2.63
2018-12-19T17:26:40.235Z,2.83
2018-12-19T17:29:08.841Z,2.80
2018-12-19T17:31:37.890Z,2.43
2018-12-19T17:34:06.347Z,2.97
2018-12-19T17:36:34.979Z,2.67
2018-12-19T17:39:04.082Z,2.50
2018-12-19T17:41:32.630Z,2.57
2018-12-19T17:44:01.297Z,2.40
2018-12-19T17:46:29.679Z,2.83
2018-12-19T17:48:57.681Z,2.57
2018-12-19T17:51:26.364Z,2.43
2018-12-19T17:53:54.913Z,2.60
2018-12-19T17:56:23.683Z,1.70
2018-12-19T17:58:51.674Z,1.70
2018-12-19T18:01:19.961Z,1.80
2018-12-19T18:03:47.985Z,1.77
2018-12-19T18:06:16.043Z,2.07
2018-12-19T18:08:44.033Z,3.13
2018-12-19T18:11:11.960Z,2.23
2018-12-19T18:13:41.044Z,1.53
2018-12-19T18:16:09.671Z,2.07
2018-12-19T18:18:37.701Z,2.53
2018-12-19T18:21:06.439Z,2.50
2018-12-19T18:23:35.242Z,2.00
2018-12-19T18:26:03.725Z,2.67
2018-12-19T18:28:32.379Z,2.73
2018-12-19T18:31:00.809Z,3.43
2018-12-19T18:33:28.687Z,3.37
2018-12-19T18:35:56.537Z,3.30
2018-12-19T18:38:24.467Z,4.13
2018-12-19T18:40:52.375Z,4.30
2018-12-19T18:43:20.346Z,5.13
2018-12-19T18:45:48.214Z,5.13
2018-12-19T18:48:16.080Z,5.57
2018-12-19T18:50:43.952Z,5.33
2018-12-19T18:53:13.214Z,5.40
2018-12-19T18:55:42.607Z,5.40
2018-12-19T18:58:10.884Z,4.70
2018-12-19T19:00:39.329Z,4.30
2018-12-19T19:03:08.126Z,4.07
2018-12-19T19:05:36.760Z,4.50
2018-12-19T19:08:05.259Z,3.47
2018-12-19T19:10:33.074Z,3.77
2018-12-19T19:13:00.942Z,3.80
2018-12-19T19:15:28.853Z,4.33
2018-12-19T19:17:56.762Z,4.27
2018-12-19T19:20:24.670Z,3.17
2018-12-19T19:22:52.676Z,4.20
2018-12-19T19:25:20.589Z,4.40
2018-12-19T19:27:48.470Z,4.23
2018-12-19T19:30:16.357Z,4.67
2018-12-19T19:32:44.940Z,5.50
2018-12-19T19:35:13.564Z,5.47
2018-12-19T19:37:41.844Z,4.10
2018-12-19T19:40:10.194Z,3.70
2018-12-19T19:42:38.168Z,5.33
2018-12-19T19:45:06.792Z,6.17
2018-12-19T19:47:34.649Z,4.77
2018-12-19T19:50:02.812Z,4.80
2018-12-19T19:52:31.019Z,3.97
2018-12-19T19:55:00.269Z,4.27
2018-12-19T19:57:28.342Z,4.70
2018-12-19T19:59:56.328Z,4.27
2018-12-19T20:02:24.832Z,4.57
2018-12-19T20:04:52.712Z,4.57
2018-12-19T20:07:20.617Z,3.80
2018-12-19T20:09:48.522Z,4.03
2018-12-19T20:12:16.405Z,3.93
2018-12-19T20:14:44.555Z,3.67
2018-12-19T20:17:16.665Z,3.37
2018-12-19T20:19:44.972Z,4.47
2018-12-19T20:22:13.524Z,4.03
2018-12-19T20:24:41.642Z,4.10
2018-12-19T20:27:09.607Z,4.00
2018-12-19T20:29:38.247Z,3.83
2018-12-19T20:32:06.114Z,4.23
2018-12-19T20:34:34.034Z,4.03
2018-12-19T20:37:02.545Z,4.00
2018-12-19T20:39:31.023Z,4.00
2018-12-19T20:41:59.682Z,4.30
2018-12-19T20:44:28.312Z,4.00
2018-12-19T20:46:56.934Z,4.70
2018-12-19T20:49:25.361Z,3.97
2018-12-19T20:51:54.005Z,4.53
2018-12-19T20:54:21.926Z,4.73
2018-12-19T20:56:49.870Z,3.97
2018-12-19T20:59:18.080Z,5.60
2018-12-19T21:01:45.965Z,5.00
2018-12-19T21:04:13.854Z,5.17
2018-12-19T21:06:41.735Z,4.97
2018-12-19T21:09:09.853Z,4.47
2018-12-19T21:11:38.400Z,4.30
2018-12-19T21:14:06.287Z,4.00
2018-12-19T21:16:39.429Z,4.50
2018-12-19T21:19:07.405Z,4.90
2018-12-19T21:21:35.448Z,8.83
2018-12-19T21:24:03.334Z,16.70
2018-12-19T21:26:31.180Z,12.43
2018-12-19T21:28:59.058Z,12.57
2018-12-19T21:31:26.939Z,34.13
2018-12-19T21:33:54.813Z,20.47
2018-12-19T21:36:23.000Z,14.03
2018-12-19T21:38:51.645Z,10.30
2018-12-19T21:41:20.297Z,6.90
2018-12-19T21:43:53.591Z,5.80
2018-12-19T21:46:18.033Z,6.57
2018-12-19T21:48:46.411Z,8.33
2018-12-19T21:51:15.082Z,9.17
2018-12-19T21:53:43.127Z,8.57
2018-12-19T21:56:11.723Z,7.93
2018-12-19T21:58:40.378Z,17.93
2018-12-19T22:01:09.175Z,13.13
2018-12-19T22:03:38.484Z,13.93
2018-12-19T22:06:07.253Z,24.40
2018-12-19T22:08:35.624Z,16.47
2018-12-19T22:11:04.076Z,11.30
2018-12-19T22:13:32.094Z,12.37
2018-12-19T22:15:59.991Z,8.30
2018-12-19T22:18:33.070Z,6.50
2018-12-19T22:21:01.611Z,5.73
2018-12-19T22:23:29.607Z,5.73
2018-12-19T22:25:57.441Z,5.60
2018-12-19T22:28:25.488Z,5.53
2018-12-19T22:30:53.366Z,6.03
2018-12-19T22:33:21.337Z,9.20
2018-12-19T22:35:49.215Z,5.97
2018-12-19T22:38:17.155Z,6.60
2018-12-19T22:40:45.136Z,12.73
2018-12-19T22:43:13.047Z,10.67
2018-12-19T22:45:41.003Z,11.17
2018-12-19T22:48:08.961Z,11.83
2018-12-19T22:50:36.885Z,9.17
2018-12-19T22:53:04.801Z,7.13
2018-12-19T22:55:32.694Z,7.10
2018-12-19T22:58:00.629Z,6.90
2018-12-19T23:00:31.611Z,6.83
2018-12-19T23:03:04.744Z,5.93
2018-12-19T23:05:37.981Z,7.50
2018-12-19T23:08:05.955Z,7.43
2018-12-19T23:10:33.808Z,6.70
2018-12-19T23:13:01.753Z,7.27
2018-12-19T23:15:29.744Z,6.53
2018-12-19T23:18:28.292Z,7.53
2018-12-19T23:20:56.372Z,7.40
2018-12-19T23:23:24.373Z,7.33
2018-12-19T23:25:52.383Z,7.90
2018-12-19T23:28:20.337Z,7.43
2018-12-19T23:30:48.276Z,7.53
2018-12-19T23:33:16.206Z,8.57
2018-12-19T23:35:44.366Z,7.97
2018-12-19T23:38:12.297Z,7.70
2018-12-19T23:40:40.144Z,8.93
2018-12-19T23:43:08.037Z,9.00
2018-12-19T23:45:36.115Z,9.27
2018-12-19T23:48:04.832Z,8.90
2018-12-19T23:50:32.765Z,8.97
2018-12-19T23:53:00.632Z,10.23
2018-12-19T23:55:28.566Z,10.93
2018-12-19T23:57:56.423Z,10.30
